Time;durP1;ratioP1;P1;durP2;ratioP2;P2;SDS_P1;SDS_P2;PMS_P1;PMS_P2;Temp;Humidity;BMP_temperature;BMP_pressure;BME280_temperature;BME280_humidity;BME280_pressure;Samples;Min_cycle;Max_cycle;Signal;HPM_P1;HPM_P2
2022/03/22 00:01:50;;;;;;;42.42;16.83;;;0.90;99.90;;;;;;5011114;28;20034;-68
2022/03/22 00:04:17;;;;;;;41.50;16.13;;;1.00;99.90;;;;;;5012722;28;20144;-68
2022/03/22 00:06:43;;;;;;;43.35;16.33;;;1.10;99.90;;;;;;5011517;28;20460;-68
2022/03/22 00:09:09;;;;;;;42.42;16.45;;;1.00;99.90;;;;;;5012948;28;20034;-68
2022/03/22 00:11:35;;;;;;;41.80;16.17;;;0.90;99.90;;;;;;5011488;28;20034;-68
2022/03/22 00:14:01;;;;;;;35.90;15.13;;;0.90;99.90;;;;;;5012409;28;20139;-68
2022/03/22 00:16:27;;;;;;;44.00;17.25;;;0.80;99.90;;;;;;5012193;28;20030;-68
2022/03/22 00:18:52;;;;;;;43.80;16.20;;;0.80;99.90;;;;;;5011343;28;20052;-68
2022/03/22 00:21:19;;;;;;;43.80;16.38;;;0.80;99.90;;;;;;5012040;28;20125;-68
2022/03/22 00:23:47;;;;;;;39.38;15.93;;;0.70;99.90;;;;;;5011928;28;20028;-68
2022/03/22 00:26:13;;;;;;;43.53;17.38;;;0.70;99.90;;;;;;5010184;28;20125;-68
2022/03/22 00:28:38;;;;;;;42.35;16.15;;;0.60;99.90;;;;;;5010924;28;20582;-67
2022/03/22 00:31:05;;;;;;;41.42;16.92;;;0.60;99.90;;;;;;5012089;28;20050;-68
2022/03/22 00:33:31;;;;;;;42.85;16.42;;;0.50;99.90;;;;;;5011104;28;20038;-65
2022/03/22 00:35:57;;;;;;;44.78;16.73;;;0.50;99.90;;;;;;5011507;28;20049;-68
2022/03/22 00:38:22;;;;;;;45.22;16.83;;;0.40;99.90;;;;;;5011745;28;20536;-68
2022/03/22 00:40:49;;;;;;;44.65;16.65;;;0.30;99.90;;;;;;5010992;28;20121;-68
2022/03/22 00:43:15;;;;;;;45.22;16.95;;;0.30;99.90;;;;;;5011508;28;20583;-68
2022/03/22 00:45:41;;;;;;;42.78;16.30;;;0.20;99.90;;;;;;5010630;28;20038;-68
2022/03/22 00:48:12;;;;;;;42.90;16.48;;;0.30;99.90;;;;;;5011589;28;20022;-68
2022/03/22 00:50:40;;;;;;;38.00;15.68;;;0.30;99.90;;;;;;5011315;28;20061;-70
2022/03/22 00:53:09;;;;;;;43.97;16.00;;;0.20;99.90;;;;;;5011459;28;20037;-70
2022/03/22 00:55:36;;;;;;;39.15;16.88;;;0.20;99.90;;;;;;5011446;28;20026;-68
2022/03/22 00:58:03;;;;;;;40.05;15.35;;;0.20;99.90;;;;;;5011638;28;20120;-69
2022/03/22 01:00:29;;;;;;;51.22;17.17;;;0.20;99.90;;;;;;5011316;28;20026;-69
2022/03/22 01:02:58;;;;;;;43.60;15.82;;;0.10;99.90;;;;;;5010431;28;20455;-69
2022/03/22 01:05:25;;;;;;;47.20;16.38;;;0.10;99.90;;;;;;5011389;28;20034;-69
2022/03/22 01:08:05;;;;;;;41.67;15.68;;;0.00;99.90;;;;;;5010739;28;20054;-69
2022/03/22 01:10:32;;;;;;;37.55;14.70;;;0.10;99.90;;;;;;5011387;28;20364;-68
2022/03/22 01:12:58;;;;;;;40.72;16.13;;;0.00;99.90;;;;;;5010576;28;20052;-69
2022/03/22 01:15:34;;;;;;;42.97;15.77;;;0.00;99.90;;;;;;5009673;28;20523;-69
2022/03/22 01:18:05;;;;;;;38.55;15.48;;;0.00;99.90;;;;;;5011211;28;20034;-69
2022/03/22 01:20:33;;;;;;;39.28;15.45;;;-0.10;99.90;;;;;;5010956;28;20468;-69
2022/03/22 01:23:00;;;;;;;46.08;15.93;;;0.00;99.90;;;;;;5010948;28;20129;-69
2022/03/22 01:25:27;;;;;;;43.35;16.25;;;0.00;99.90;;;;;;5010968;28;20032;-69
2022/03/22 01:27:54;;;;;;;43.22;16.25;;;0.00;99.90;;;;;;5010109;28;20034;-69
2022/03/22 01:30:22;;;;;;;45.33;17.50;;;0.00;99.90;;;;;;5010737;28;20042;-68
2022/03/22 01:32:50;;;;;;;44.22;16.88;;;0.00;99.90;;;;;;5010119;28;20030;-69
2022/03/22 01:35:16;;;;;;;41.88;16.65;;;0.00;99.90;;;;;;5011102;28;20101;-69
2022/03/22 01:37:44;;;;;;;41.78;16.55;;;0.10;99.90;;;;;;5010001;28;20080;-69
2022/03/22 01:40:10;;;;;;;41.35;15.98;;;0.10;99.90;;;;;;4991343;28;20129;-69
2022/03/22 01:42:36;;;;;;;45.03;15.90;;;0.10;99.90;;;;;;4999344;28;20135;-66
2022/03/22 01:45:04;;;;;;;43.22;16.15;;;0.10;99.90;;;;;;5010095;28;20034;-69
2022/03/22 01:47:30;;;;;;;42.97;17.55;;;0.00;99.90;;;;;;5010409;28;20026;-69
2022/03/22 01:49:56;;;;;;;46.17;16.63;;;-0.10;99.90;;;;;;5009639;28;20026;-69
2022/03/22 01:52:24;;;;;;;40.38;15.55;;;-0.10;99.90;;;;;;5009828;28;20479;-69
2022/03/22 01:54:51;;;;;;;38.78;15.30;;;-0.20;99.90;;;;;;5009830;28;20041;-69
2022/03/22 01:57:22;;;;;;;49.53;16.75;;;-0.20;99.90;;;;;;5010308;28;20021;-68
2022/03/22 01:59:48;;;;;;;48.20;16.00;;;-0.30;99.90;;;;;;5009328;28;20034;-69
2022/03/22 02:07:47;;;;;;;41.97;15.73;;;-0.40;99.90;;;;;;5009494;28;20036;-69
2022/03/22 02:10:14;;;;;;;42.13;16.58;;;-0.40;99.90;;;;;;5010409;28;20030;-69
2022/03/22 02:12:44;;;;;;;41.47;15.75;;;-0.40;99.90;;;;;;4998352;28;20037;-68
2022/03/22 02:15:09;;;;;;;44.27;16.07;;;-0.30;99.90;;;;;;5008096;28;20025;-69
2022/03/22 02:17:35;;;;;;;43.67;16.40;;;-0.30;99.90;;;;;;5009789;28;20279;-67
2022/03/22 02:20:01;;;;;;;45.38;16.95;;;-0.30;99.90;;;;;;5009319;28;20025;-69
2022/03/22 02:22:40;;;;;;;41.45;17.38;;;-0.30;99.90;;;;;;5008487;28;20033;-69
2022/03/22 02:25:15;;;;;;;45.35;16.48;;;-0.30;99.90;;;;;;4990713;28;20061;-69
2022/03/22 02:27:44;;;;;;;41.67;16.05;;;-0.40;99.90;;;;;;4993950;28;20056;-68
2022/03/22 02:30:12;;;;;;;46.85;15.93;;;-0.40;99.90;;;;;;5009678;28;20045;-69
2022/03/22 02:32:38;;;;;;;47.55;16.73;;;-0.40;99.90;;;;;;5009170;28;20069;-68
2022/03/22 02:35:05;;;;;;;43.58;17.48;;;-0.40;99.90;;;;;;5009719;28;20030;-69
2022/03/22 02:37:31;;;;;;;46.03;17.23;;;-0.30;99.90;;;;;;5009645;28;20037;-68
2022/03/22 02:39:57;;;;;;;42.03;16.38;;;-0.30;99.90;;;;;;5009176;28;20034;-68
2022/03/22 02:42:22;;;;;;;43.47;17.15;;;-0.30;99.90;;;;;;5009010;28;20076;-70
2022/03/22 02:44:48;;;;;;;43.58;16.95;;;-0.50;99.90;;;;;;5008707;28;20172;-69
2022/03/22 02:47:14;;;;;;;40.83;15.73;;;-0.40;99.90;;;;;;5009258;28;20033;-69
2022/03/22 02:49:39;;;;;;;46.45;16.83;;;-0.50;99.90;;;;;;5009238;28;20041;-68
2022/03/22 02:52:06;;;;;;;41.80;16.83;;;-0.50;99.90;;;;;;5008036;28;20046;-69
2022/03/22 02:54:31;;;;;;;44.13;16.65;;;-0.60;99.90;;;;;;5009519;28;20030;-69
2022/03/22 02:56:57;;;;;;;49.35;17.63;;;-0.60;99.90;;;;;;5008476;28;20524;-69
2022/03/22 02:59:23;;;;;;;48.90;18.15;;;-0.70;99.90;;;;;;5008134;28;20034;-69
2022/03/22 03:01:49;;;;;;;43.65;17.13;;;-0.70;99.90;;;;;;5008615;28;20400;-70
2022/03/22 03:04:14;;;;;;;46.65;17.67;;;-0.70;99.90;;;;;;5008914;28;20038;-69
2022/03/22 03:06:40;;;;;;;46.60;16.58;;;-0.60;99.90;;;;;;5009246;28;20663;-68
2022/03/22 03:09:06;;;;;;;45.88;18.02;;;-0.60;99.90;;;;;;5008026;28;20080;-69
2022/03/22 03:11:31;;;;;;;43.45;16.23;;;-0.50;99.90;;;;;;5009638;28;20485;-68
2022/03/22 03:16:41;;;;;;;48.53;16.73;;;-0.60;99.90;;;;;;4989250;28;20041;-68
2022/03/22 03:19:07;;;;;;;46.03;15.50;;;-0.60;99.90;;;;;;5021059;28;20026;-69
2022/03/22 03:21:33;;;;;;;43.03;15.82;;;-0.70;99.90;;;;;;4989567;28;20031;-70
2022/03/22 03:23:59;;;;;;;41.80;16.27;;;-0.70;99.90;;;;;;4995565;28;20034;-69
2022/03/22 03:26:25;;;;;;;43.70;16.15;;;-0.70;99.90;;;;;;5010655;28;20104;-69
2022/03/22 03:28:51;;;;;;;49.75;15.98;;;-0.80;99.90;;;;;;5014804;28;20457;-69
2022/03/22 03:31:17;;;;;;;44.45;15.05;;;-0.90;99.90;;;;;;5019457;28;20041;-69
2022/03/22 03:33:43;;;;;;;43.15;16.38;;;-0.80;99.90;;;;;;5022424;28;20030;-68
2022/03/22 03:36:09;;;;;;;43.78;15.93;;;-0.90;99.90;;;;;;5024719;28;20041;-69
2022/03/22 03:38:41;;;;;;;37.95;14.80;;;-0.80;99.90;;;;;;5044953;28;20388;-70
2022/03/22 03:43:52;;;;;;;40.92;15.50;;;-0.90;99.90;;;;;;5025461;28;20084;-69
2022/03/22 03:49:03;;;;;;;43.22;14.95;;;-1.00;99.90;;;;;;5014781;28;20706;-69
2022/03/22 03:51:29;;;;;;;40.38;15.13;;;-0.90;99.90;;;;;;5014414;28;20064;-69
2022/03/22 03:53:54;;;;;;;41.10;16.05;;;-1.00;99.90;;;;;;5011395;28;20476;-68
2022/03/22 03:56:20;;;;;;;39.72;14.07;;;-1.00;99.90;;;;;;5012224;28;20033;-68
2022/03/22 03:58:46;;;;;;;42.25;15.25;;;-1.00;99.90;;;;;;5010768;28;20036;-69
2022/03/22 04:01:11;;;;;;;44.25;15.38;;;-1.00;99.90;;;;;;5011378;28;20038;-69
2022/03/22 04:03:39;;;;;;;44.25;15.95;;;-1.10;99.90;;;;;;5012203;28;20046;-69
2022/03/22 04:06:05;;;;;;;37.10;14.35;;;-1.10;99.90;;;;;;5011843;28;20032;-69
2022/03/22 04:08:31;;;;;;;43.50;15.32;;;-1.10;99.90;;;;;;5012354;28;20046;-69
2022/03/22 04:10:56;;;;;;;45.13;15.98;;;-1.10;99.90;;;;;;5011859;28;20080;-69
2022/03/22 04:13:22;;;;;;;39.80;14.48;;;-1.10;99.90;;;;;;5011904;28;20030;-69
2022/03/22 04:15:48;;;;;;;37.35;14.45;;;-1.00;99.90;;;;;;5011534;28;20030;-69
2022/03/22 04:18:14;;;;;;;43.33;15.38;;;-1.10;99.90;;;;;;5012270;28;20108;-69
2022/03/22 04:20:40;;;;;;;42.80;15.15;;;-1.10;99.90;;;;;;5011003;28;20531;-69
2022/03/22 04:23:05;;;;;;;40.55;15.57;;;-1.20;99.90;;;;;;5011607;28;20034;-70
2022/03/22 04:25:31;;;;;;;42.00;14.85;;;-1.20;99.90;;;;;;5010945;28;20037;-70
2022/03/22 04:33:25;;;;;;;42.60;14.48;;;-1.10;99.90;;;;;;5011946;28;20045;-69
2022/03/22 04:35:51;;;;;;;43.85;15.10;;;-1.10;99.90;;;;;;5011368;28;20032;-69
2022/03/22 04:38:17;;;;;;;43.90;15.55;;;-1.10;99.90;;;;;;5011227;28;20026;-69
2022/03/22 04:40:43;;;;;;;38.65;14.27;;;-1.20;99.90;;;;;;5011698;28;20030;-70
2022/03/22 04:43:08;;;;;;;36.80;14.18;;;-1.10;99.90;;;;;;5010778;28;20617;-70
2022/03/22 04:45:35;;;;;;;39.67;14.90;;;-1.10;99.90;;;;;;5011767;28;20026;-69
2022/03/22 04:48:01;;;;;;;39.65;14.43;;;-1.00;99.90;;;;;;5010993;28;20034;-70
2022/03/22 04:50:27;;;;;;;39.35;14.32;;;-0.90;99.90;;;;;;5011609;28;20041;-70
2022/03/22 04:58:25;;;;;;;41.15;13.77;;;-1.20;99.90;;;;;;5011295;28;20399;-70
2022/03/22 05:00:51;;;;;;;42.95;14.57;;;-1.30;99.90;;;;;;5010820;28;20037;-70
2022/03/22 05:03:17;;;;;;;40.42;15.52;;;-1.30;99.90;;;;;;5011210;28;20054;-70
2022/03/22 05:08:26;;;;;;;38.33;14.75;;;-1.30;99.90;;;;;;5011028;28;20068;-70
2022/03/22 05:10:55;;;;;;;40.30;15.18;;;-1.40;99.90;;;;;;5010657;28;20057;-69
2022/03/22 05:13:21;;;;;;;41.20;14.80;;;-1.50;99.90;;;;;;5011698;28;20096;-70
2022/03/22 05:15:47;;;;;;;40.92;14.55;;;-1.50;99.90;;;;;;5011215;28;20030;-69
2022/03/22 05:18:13;;;;;;;40.78;15.48;;;-1.50;99.90;;;;;;5010782;28;20030;-69
2022/03/22 05:20:39;;;;;;;45.70;16.50;;;-1.60;99.90;;;;;;5011157;28;20540;-71
2022/03/22 05:23:04;;;;;;;42.90;15.10;;;-1.70;99.90;;;;;;5010197;28;20042;-70
2022/03/22 05:25:31;;;;;;;40.83;14.95;;;-1.80;99.90;;;;;;5010934;28;20120;-70
2022/03/22 05:27:59;;;;;;;37.95;14.68;;;-1.70;99.90;;;;;;5010586;28;20057;-71
2022/03/22 05:30:25;;;;;;;38.80;14.68;;;-1.60;99.90;;;;;;5010907;28;20071;-69
2022/03/22 05:32:50;;;;;;;37.17;15.50;;;-1.50;99.90;;;;;;5009275;28;20037;-67
2022/03/22 05:35:16;;;;;;;38.63;14.88;;;-1.40;99.90;;;;;;5008509;28;20034;-70
2022/03/22 05:37:42;;;;;;;38.90;14.88;;;-1.40;99.90;;;;;;5009430;28;20397;-70
2022/03/22 05:40:09;;;;;;;41.83;14.73;;;-1.40;99.90;;;;;;5016664;28;20269;-70
2022/03/22 05:42:38;;;;;;;38.53;14.82;;;-1.40;99.90;;;;;;5009770;28;20038;-69
2022/03/22 05:45:04;;;;;;;41.53;14.68;;;-1.30;99.90;;;;;;5008904;28;20041;-69
2022/03/22 05:47:30;;;;;;;42.10;15.07;;;-1.40;99.90;;;;;;5009917;28;20377;-69
2022/03/22 05:49:55;;;;;;;40.95;14.45;;;-1.40;99.90;;;;;;5010554;28;20029;-69
2022/03/22 05:52:21;;;;;;;41.10;15.73;;;-1.40;99.90;;;;;;5009913;28;20484;-69
2022/03/22 05:54:47;;;;;;;44.63;15.45;;;-1.30;99.90;;;;;;5010112;28;20030;-69
2022/03/22 05:57:12;;;;;;;43.05;16.05;;;-1.20;99.90;;;;;;5008092;28;20038;-70
2022/03/22 05:59:38;;;;;;;39.85;15.45;;;-1.10;99.90;;;;;;5010094;28;20026;-70
2022/03/22 06:02:04;;;;;;;38.25;14.88;;;-1.00;99.90;;;;;;5008791;28;20085;-70
2022/03/22 06:04:29;;;;;;;42.53;15.45;;;-1.00;99.90;;;;;;5010521;28;20080;-70
2022/03/22 06:06:55;;;;;;;43.13;15.50;;;-0.90;99.90;;;;;;5008686;28;20112;-70
2022/03/22 06:09:21;;;;;;;39.88;14.75;;;-0.80;99.90;;;;;;5010347;28;20468;-70
2022/03/22 06:11:46;;;;;;;43.95;15.95;;;-0.70;99.90;;;;;;5010060;28;20034;-70
2022/03/22 06:14:12;;;;;;;44.90;15.85;;;-0.80;99.90;;;;;;5009415;28;20614;-70
2022/03/22 06:16:37;;;;;;;38.65;15.63;;;-0.80;99.90;;;;;;5009574;28;20401;-70
2022/03/22 06:19:03;;;;;;;40.80;16.02;;;-0.80;99.90;;;;;;5009539;28;20069;-70
2022/03/22 06:21:29;;;;;;;44.13;16.25;;;-0.80;99.90;;;;;;5013609;28;20076;-70
2022/03/22 06:23:55;;;;;;;42.08;16.73;;;-0.70;99.90;;;;;;5008248;28;20179;-67
2022/03/22 06:26:21;;;;;;;42.95;16.42;;;-0.40;99.90;;;;;;5010222;28;20034;-70
2022/03/22 06:28:46;;;;;;;42.00;16.42;;;-0.40;99.90;;;;;;5024441;28;20048;-70
2022/03/22 06:31:13;;;;;;;40.72;16.25;;;-0.30;99.90;;;;;;5019481;28;20237;-70
2022/03/22 06:33:38;;;;;;;40.33;15.52;;;-0.20;99.90;;;;;;5029836;28;20029;-70
2022/03/22 06:36:08;;;;;;;42.20;16.92;;;-0.10;99.90;;;;;;5016410;28;21034;-70
2022/03/22 06:38:34;;;;;;;38.50;15.50;;;0.00;99.90;;;;;;5027062;28;20038;-70
2022/03/22 06:41:00;;;;;;;41.90;16.20;;;0.10;99.90;;;;;;5021561;28;20026;-70
2022/03/22 06:43:26;;;;;;;43.28;16.58;;;0.20;99.90;;;;;;5024073;28;20037;-70
2022/03/22 06:45:52;;;;;;;40.13;16.55;;;0.20;99.90;;;;;;5010060;28;20029;-68
2022/03/22 06:48:18;;;;;;;42.13;16.48;;;0.30;99.90;;;;;;5025146;28;20029;-69
2022/03/22 06:50:45;;;;;;;42.10;16.27;;;0.50;99.90;;;;;;5020054;28;20025;-69
2022/03/22 06:53:11;;;;;;;42.30;15.80;;;0.50;99.90;;;;;;5008280;28;20389;-69
2022/03/22 06:55:37;;;;;;;55.78;19.20;;;0.50;99.90;;;;;;5009361;28;20078;-69
2022/03/22 06:58:04;;;;;;;49.00;17.88;;;0.60;99.90;;;;;;5008501;28;20049;-69
2022/03/22 07:00:31;;;;;;;49.85;17.55;;;0.80;99.90;;;;;;5008875;28;20041;-69
2022/03/22 07:02:58;;;;;;;47.55;18.02;;;0.90;99.90;;;;;;5007573;28;20550;-69
2022/03/22 07:05:24;;;;;;;47.50;17.45;;;1.00;99.90;;;;;;5009214;28;20041;-68
2022/03/22 07:07:50;;;;;;;51.30;19.17;;;1.20;99.90;;;;;;5008231;28;20026;-69
2022/03/22 07:10:18;;;;;;;45.88;18.95;;;1.30;99.90;;;;;;5008299;28;20026;-69
2022/03/22 07:12:51;;;;;;;41.45;16.48;;;1.60;99.90;;;;;;5008523;28;20030;-68
2022/03/22 07:15:29;;;;;;;44.13;18.00;;;1.90;99.90;;;;;;5008314;28;20040;-68
2022/03/22 07:17:57;;;;;;;43.40;17.73;;;2.00;99.90;;;;;;5008972;28;20499;-68
2022/03/22 07:20:23;;;;;;;53.97;17.05;;;2.10;99.90;;;;;;4999859;28;20057;-68
2022/03/22 07:22:49;;;;;;;53.92;17.10;;;2.30;99.90;;;;;;5009019;28;20033;-68
2022/03/22 07:25:15;;;;;;;40.90;14.48;;;2.60;99.90;;;;;;5008284;28;20040;-68
2022/03/22 07:27:41;;;;;;;37.53;14.27;;;2.90;99.90;;;;;;5011789;28;20036;-68
2022/03/22 07:30:07;;;;;;;40.83;15.50;;;3.30;99.90;;;;;;5012540;28;20080;-69
2022/03/22 07:32:33;;;;;;;38.67;14.75;;;3.70;99.90;;;;;;5004922;28;20087;-68
2022/03/22 07:34:59;;;;;;;35.80;13.25;;;4.10;99.90;;;;;;5007412;28;20045;-68
2022/03/22 07:37:25;;;;;;;32.25;12.70;;;4.50;99.90;;;;;;5006437;28;20036;-66
2022/03/22 07:39:51;;;;;;;31.80;11.73;;;4.90;99.90;;;;;;5006717;28;20439;-69
2022/03/22 07:42:17;;;;;;;27.77;11.45;;;5.20;99.90;;;;;;5008502;28;20026;-68
2022/03/22 07:44:42;;;;;;;26.55;11.30;;;5.40;99.90;;;;;;5007810;28;20038;-68
2022/03/22 07:47:08;;;;;;;28.92;11.68;;;5.60;99.90;;;;;;5008046;28;20026;-68
2022/03/22 07:55:02;;;;;;;27.75;11.25;;;6.10;99.90;;;;;;5007884;28;20068;-68
2022/03/22 07:57:28;;;;;;;29.58;11.60;;;6.20;99.90;;;;;;5009026;28;20053;-68
2022/03/22 07:59:53;;;;;;;28.33;11.60;;;6.40;99.90;;;;;;5007804;28;20105;-68
2022/03/22 08:02:19;;;;;;;26.45;11.45;;;6.50;99.90;;;;;;5007692;28;20053;-68
2022/03/22 08:04:45;;;;;;;26.55;11.30;;;6.70;99.90;;;;;;5009313;28;20085;-68
2022/03/22 08:07:11;;;;;;;31.60;12.07;;;6.80;99.90;;;;;;5008414;28;20037;-67
2022/03/22 08:09:36;;;;;;;24.85;11.80;;;7.00;99.80;;;;;;5008309;28;20404;-68
2022/03/22 08:12:02;;;;;;;28.00;12.05;;;7.10;97.40;;;;;;5008393;28;20030;-67
2022/03/22 08:14:28;;;;;;;23.70;10.75;;;7.30;96.70;;;;;;5012603;28;20411;-67
2022/03/22 08:16:54;;;;;;;28.63;11.43;;;7.50;97.20;;;;;;5012309;28;20076;-67
2022/03/22 08:19:19;;;;;;;23.88;10.98;;;7.70;93.60;;;;;;5011946;28;20747;-68
2022/03/22 08:21:48;;;;;;;26.88;11.43;;;7.80;92.10;;;;;;5012457;28;20038;-67
2022/03/22 08:24:14;;;;;;;25.85;11.13;;;8.00;90.70;;;;;;5011062;28;20049;-67
2022/03/22 08:26:40;;;;;;;25.38;10.73;;;8.10;88.60;;;;;;5012559;28;20034;-68
2022/03/22 08:29:06;;;;;;;26.55;10.35;;;8.10;85.70;;;;;;5011568;28;20108;-67
2022/03/22 08:31:31;;;;;;;27.70;11.10;;;8.30;85.40;;;;;;5011832;28;20048;-67
2022/03/22 08:33:57;;;;;;;25.45;10.43;;;8.40;82.10;;;;;;5012007;28;20030;-67
2022/03/22 08:36:23;;;;;;;24.90;10.48;;;8.60;83.90;;;;;;5011050;28;20399;-68
2022/03/22 08:38:49;;;;;;;22.00;10.32;;;8.80;79.10;;;;;;5006924;28;20473;-67
2022/03/22 08:41:15;;;;;;;27.02;11.00;;;8.90;79.10;;;;;;5011143;28;20052;-67
2022/03/22 08:43:42;;;;;;;24.55;10.82;;;9.00;79.00;;;;;;5011626;28;20127;-67
2022/03/22 08:46:14;;;;;;;24.67;11.32;;;9.10;76.20;;;;;;5011089;28;20022;-67
2022/03/22 08:48:39;;;;;;;23.23;10.80;;;9.30;75.50;;;;;;4992584;28;20030;-67
2022/03/22 08:51:05;;;;;;;24.55;10.57;;;9.40;74.60;;;;;;4990321;28;20149;-67
2022/03/22 08:53:32;;;;;;;26.70;10.70;;;9.50;73.80;;;;;;4992387;28;20061;-67
2022/03/22 08:56:02;;;;;;;29.25;11.13;;;9.60;74.00;;;;;;4992305;28;20023;-67
2022/03/22 08:58:28;;;;;;;24.27;10.57;;;9.70;72.30;;;;;;5004098;28;20037;-67
2022/03/22 09:00:54;;;;;;;25.08;11.52;;;10.00;73.30;;;;;;5011203;28;20040;-68
2022/03/22 09:03:21;;;;;;;25.70;10.88;;;10.20;71.30;;;;;;5010375;28;20103;-67
2022/03/22 09:08:32;;;;;;;35.13;12.77;;;10.40;68.80;;;;;;5011511;28;20076;-67
2022/03/22 09:10:57;;;;;;;25.20;11.15;;;10.40;67.00;;;;;;5011914;28;20029;-67
2022/03/22 09:13:23;;;;;;;29.30;12.40;;;10.70;70.80;;;;;;5010837;28;20586;-67
2022/03/22 09:15:51;;;;;;;25.42;11.70;;;10.90;65.70;;;;;;5011359;28;20038;-67
2022/03/22 09:18:17;;;;;;;26.85;12.15;;;11.00;69.10;;;;;;5010290;28;20022;-67
2022/03/22 09:20:44;;;;;;;27.85;11.43;;;11.10;69.10;;;;;;5011376;28;20428;-68
2022/03/22 09:23:11;;;;;;;25.77;11.27;;;11.20;67.20;;;;;;5009987;28;20070;-67
2022/03/22 09:25:39;;;;;;;25.98;11.15;;;11.20;63.20;;;;;;5011372;28;20030;-67
2022/03/22 09:28:06;;;;;;;27.35;12.88;;;11.40;68.30;;;;;;5010184;28;20080;-67
2022/03/22 09:30:33;;;;;;;30.55;12.77;;;11.60;62.70;;;;;;5011244;28;20037;-67
2022/03/22 09:32:58;;;;;;;29.98;12.48;;;11.50;61.30;;;;;;5011811;28;20037;-67
2022/03/22 09:35:25;;;;;;;29.90;12.65;;;11.40;61.90;;;;;;5008239;28;20700;-68
2022/03/22 09:37:51;;;;;;;30.20;13.32;;;11.70;63.40;;;;;;5011242;28;20120;-68
2022/03/22 09:40:18;;;;;;;31.02;12.07;;;11.80;60.40;;;;;;5012931;28;20120;-68
2022/03/22 09:42:46;;;;;;;31.10;13.18;;;11.90;61.50;;;;;;5008986;28;20038;-69
2022/03/22 09:45:17;;;;;;;38.55;14.27;;;11.90;59.40;;;;;;5009738;28;20045;-68
2022/03/22 09:47:45;;;;;;;32.15;13.32;;;12.10;60.10;;;;;;5010632;28;20026;-68
2022/03/22 09:50:12;;;;;;;28.95;13.38;;;12.20;60.90;;;;;;5010070;28;20105;-67
2022/03/22 09:52:39;;;;;;;33.38;13.70;;;12.40;60.10;;;;;;5010212;28;20432;-68
2022/03/22 09:55:08;;;;;;;33.08;12.65;;;12.50;59.50;;;;;;5010328;28;20117;-65
2022/03/22 09:57:34;;;;;;;31.23;13.30;;;12.70;58.30;;;;;;5010215;28;20033;-68
2022/03/22 10:00:01;;;;;;;32.58;12.88;;;12.80;58.50;;;;;;5010602;28;20025;-68
2022/03/22 10:02:32;;;;;;;34.67;13.30;;;13.00;59.00;;;;;;5008681;28;20045;-68
2022/03/22 10:04:58;;;;;;;;;;;13.30;58.40;;;;;;5010907;28;20058;-68
2022/03/22 10:07:24;;;;;;;25.25;12.20;;;13.30;58.70;;;;;;5008927;28;19971;-68
2022/03/22 10:10:03;;;;;;;29.88;13.02;;;13.50;59.70;;;;;;5010603;28;20034;-69
2022/03/22 10:12:30;;;;;;;31.27;13.35;;;13.70;56.90;;;;;;5009762;28;20034;-68
2022/03/22 10:15:10;;;;;;;28.65;13.13;;;13.50;56.10;;;;;;5010136;28;20034;-68
2022/03/22 10:17:37;;;;;;;27.55;13.38;;;13.60;57.50;;;;;;5010190;28;20033;-69
2022/03/22 10:20:05;;;;;;;32.35;12.48;;;13.70;55.10;;;;;;5010113;28;20498;-68
2022/03/22 10:22:33;;;;;;;32.40;13.52;;;13.70;54.00;;;;;;5009525;28;20373;-68
2022/03/22 10:25:00;;;;;;;28.80;13.40;;;14.00;55.40;;;;;;5010019;28;20087;-69
2022/03/22 10:27:34;;;;;;;29.38;13.23;;;14.00;53.00;;;;;;5009522;28;20518;-68
2022/03/22 10:30:09;;;;;;;25.60;13.43;;;14.00;55.90;;;;;;5010290;28;20018;-67
2022/03/22 10:32:44;;;;;;;30.13;13.18;;;14.10;54.20;;;;;;5009765;28;20045;-68
2022/03/22 10:35:22;;;;;;;30.60;13.02;;;14.40;55.80;;;;;;5008308;28;20034;-68
2022/03/22 10:37:56;;;;;;;26.20;13.15;;;14.60;52.90;;;;;;5009999;28;20058;-69
2022/03/22 10:40:25;;;;;;;28.70;12.35;;;14.80;52.70;;;;;;5009188;28;20105;-69
2022/03/22 10:42:57;;;;;;;29.23;13.75;;;14.90;52.20;;;;;;5008583;28;20054;-69
2022/03/22 10:45:22;;;;;;;32.63;14.27;;;15.00;54.30;;;;;;5009259;28;20062;-69
2022/03/22 10:47:48;;;;;;;30.45;12.80;;;15.10;52.40;;;;;;5009383;28;20049;-69
2022/03/22 10:50:14;;;;;;;26.98;12.63;;;15.20;52.20;;;;;;5008128;28;20555;-69
2022/03/22 10:52:51;;;;;;;30.48;13.45;;;15.20;52.50;;;;;;5009369;28;20523;-69
2022/03/22 10:55:20;;;;;;;24.10;12.77;;;15.40;54.10;;;;;;4989508;28;20034;-68
2022/03/22 10:57:50;;;;;;;29.52;13.75;;;15.70;54.50;;;;;;4997111;28;20033;-68
2022/03/22 11:00:17;;;;;;;27.23;13.60;;;15.80;51.20;;;;;;5008835;28;20554;-69
2022/03/22 11:02:45;;;;;;;28.38;13.77;;;16.10;52.80;;;;;;5009214;28;20057;-68
2022/03/22 11:05:11;;;;;;;27.70;13.82;;;16.00;51.70;;;;;;5008780;28;20030;-66
2022/03/22 11:07:40;;;;;;;29.45;13.68;;;15.80;49.90;;;;;;5009329;28;20112;-68
2022/03/22 11:10:06;;;;;;;28.73;13.68;;;16.00;53.30;;;;;;5008857;28;20030;-68
2022/03/22 11:12:33;;;;;;;35.15;13.90;;;16.20;51.10;;;;;;5009271;28;20516;-68
2022/03/22 11:15:00;;;;;;;33.03;14.93;;;16.50;51.80;;;;;;5009687;28;20097;-67
2022/03/22 11:17:34;;;;;;;30.35;14.43;;;16.70;51.90;;;;;;5009047;28;20037;-69
2022/03/22 11:20:06;;;;;;;33.13;14.57;;;16.80;50.10;;;;;;5009440;28;20716;-69
2022/03/22 11:22:32;;;;;;;28.88;14.00;;;16.60;49.50;;;;;;5008672;28;20376;-69
2022/03/22 11:25:13;;;;;;;27.67;13.88;;;16.70;50.70;;;;;;5009642;28;20033;-67
2022/03/22 11:27:39;;;;;;;26.13;13.57;;;17.10;51.10;;;;;;5009656;28;20121;-69
2022/03/22 11:30:08;;;;;;;28.08;13.93;;;17.30;49.00;;;;;;5009510;28;20033;-67
2022/03/22 11:35:25;;;;;;;27.70;14.15;;;17.40;49.00;;;;;;5008530;28;20044;-69
2022/03/22 11:38:00;;;;;;;30.17;14.40;;;17.80;49.70;;;;;;5009589;28;20041;-69
2022/03/22 11:43:13;;;;;;;29.65;13.82;;;17.20;46.10;;;;;;5008328;28;20562;-66
2022/03/22 11:45:49;;;;;;;27.80;13.75;;;17.00;47.70;;;;;;5009341;28;20208;-69
2022/03/22 11:48:16;;;;;;;31.23;13.80;;;16.90;47.90;;;;;;5011949;28;20029;-68
2022/03/22 11:50:46;;;;;;;31.00;14.15;;;17.00;47.50;;;;;;5013041;28;20034;-68
2022/03/22 11:53:21;;;;;;;31.33;14.40;;;17.40;48.40;;;;;;5012693;28;20183;-66
2022/03/22 11:55:51;;;;;;;27.48;13.52;;;17.70;47.30;;;;;;5012717;28;20037;-69
2022/03/22 11:58:18;;;;;;;29.75;14.25;;;17.70;45.10;;;;;;5012952;28;20034;-69
2022/03/22 12:00:55;;;;;;;27.77;13.60;;;17.80;44.80;;;;;;5012128;28;20041;-68
2022/03/22 12:03:28;;;;;;;32.38;14.35;;;18.10;46.60;;;;;;5010370;28;20053;-70
2022/03/22 12:05:54;;;;;;;28.40;14.40;;;18.40;45.60;;;;;;5011951;28;20118;-69
2022/03/22 12:08:20;;;;;;;32.33;14.85;;;18.20;44.80;;;;;;5016495;28;20068;-68
2022/03/22 12:10:50;;;;;;;30.85;14.32;;;17.50;45.00;;;;;;5012757;28;20040;-67
2022/03/22 12:13:17;;;;;;;26.25;14.05;;;17.70;47.00;;;;;;5009983;28;20033;-68
2022/03/22 12:15:43;;;;;;;29.27;13.75;;;18.30;46.60;;;;;;5011898;28;20038;-67
2022/03/22 12:18:10;;;;;;;30.20;14.23;;;18.50;46.20;;;;;;5012029;28;20034;-67
2022/03/22 12:20:37;;;;;;;27.67;13.77;;;18.60;44.10;;;;;;5010398;28;20034;-69
2022/03/22 12:23:03;;;;;;;26.52;13.40;;;18.50;44.30;;;;;;5007709;28;20046;-70
2022/03/22 12:25:34;;;;;;;26.10;13.25;;;18.70;43.80;;;;;;5009054;28;20325;-68
2022/03/22 12:27:59;;;;;;;;;;;18.40;42.60;;;;;;5012444;28;20530;-66
2022/03/22 12:30:28;;;;;;;33.92;14.32;;;18.30;44.50;;;;;;5009877;28;19992;-70
2022/03/22 12:32:57;;;;;;;26.75;12.80;;;18.50;44.90;;;;;;5010521;28;20061;-70
2022/03/22 12:35:24;;;;;;;27.95;13.40;;;18.80;45.00;;;;;;5012229;28;20544;-69
2022/03/22 12:37:52;;;;;;;24.85;13.32;;;18.80;43.70;;;;;;5011401;28;20050;-69
2022/03/22 12:40:18;;;;;;;31.58;13.30;;;18.60;43.60;;;;;;5010403;28;20029;-69
2022/03/22 12:42:45;;;;;;;27.05;12.13;;;18.80;43.70;;;;;;5003056;28;20061;-68
2022/03/22 12:45:12;;;;;;;28.65;12.90;;;19.10;42.80;;;;;;5010000;28;20036;-68
2022/03/22 12:47:39;;;;;;;22.98;12.05;;;18.60;39.70;;;;;;5010646;28;20053;-69
2022/03/22 12:50:07;;;;;;;25.20;12.98;;;18.80;41.30;;;;;;5011254;28;20477;-69
2022/03/22 12:52:32;;;;;;;26.10;13.05;;;19.10;42.30;;;;;;5010348;28;20034;-67
2022/03/22 12:54:58;;;;;;;26.40;12.82;;;19.20;41.20;;;;;;5011058;28;20109;-68
2022/03/22 12:57:24;;;;;;;27.15;12.85;;;18.80;40.40;;;;;;5014777;28;20430;-68
2022/03/22 12:59:50;;;;;;;23.10;11.48;;;18.80;41.40;;;;;;5010737;28;20037;-68
2022/03/22 13:02:19;;;;;;;24.23;12.10;;;18.80;40.90;;;;;;5009962;28;20050;-65
2022/03/22 13:04:48;;;;;;;27.35;12.23;;;19.00;40.40;;;;;;5010712;28;20058;-69
2022/03/22 13:07:25;;;;;;;26.00;12.15;;;19.20;39.90;;;;;;5011118;28;20516;-67
2022/03/22 13:12:39;;;;;;;26.17;12.57;;;19.50;38.40;;;;;;5008809;28;20040;-68
2022/03/22 13:15:08;;;;;;;26.05;11.52;;;19.50;37.80;;;;;;5010692;28;20037;-66